Terminal Aerodrome Forecast
Issued by NWS

Home | Current Version | Previous Version | Graphics & Text | Print | Product List | Glossary On
Versions: 1 2 3 4 5 6 7 8 9 10 11 12 13 14 15 16 17 18 19 20 21 22 23
197
FTUS43 KGRB 231135
TAFCWA
TAF
KCWA 231135Z 2312/2412 13004KT 2SM -SN BR OVC005 WS020/16035KT
      TEMPO 2312/2313 3/4SM -SN BR OVC003
     FM231400 21005KT 2SM -FZDZSN BR OVC005
     FM231500 27010G17KT P6SM OVC009
     FM232100 29007KT P6SM BKN011
     FM240300 30005KT P6SM SCT016=

USA.gov is the U.S. government's official web portal to all federal, state and local government web resources and services.